Kempton, Illinois
Current Conditions -  °F | °C
As of 9:35 PM on Friday 28 Nov 2014 (Local Time) from KPNT Reporting Station
Clear Clear  
Wind Chill: 26°   Ceiling: Unl
Heat Index: 35°   Visibility: 10mi
Dew Point: 32°   Wind: 14mph
Humidity: 89%   Direction: 160°SSE
Pressure: 29.91"   Gusts: NA
Location:  40.94°N, 88.24°W
Report Text: KPNT 290335Z AUTO 16012KT 10SM CLR 02/00 A2991 RMK AO2 T00170000
Loading
Personal Weather Stations






























Interactive Weather Map New forecast layout! Learn more

10-Day Weather Forecast

Advertisements
Track Severe Weather on mobile